M I D A S
Marine Information and Data Acquisition System
Tripno 63 of the Zeeleeuw from 2001-08-31 06:08:46 to 2001-08-31 19:00:00
Back to CruiseResearch ActivitiesStationsMapUnderway DataData graphs

EquipmentUnitsComment
TimeDGPSUTC
LatitudeDGPSDM.mWGS84
LongitudeDGPSDM.mWGS84
HeadingGyrodeg 
SOGDGPSknotsSpeed over ground
COGDGPSdegCourse over ground
DepthEcho soundermeters200 kHz
Missing or incorrect values are displayed as -999
Navigation data collected by the RV Zeeleeuw from 2001-08-31 06:08:46 to 2001-08-31 19:00:00
                                                                                    Next 1000 lines
Time Latitude Longitude Heading SOG COG Depth
2001-08-31 06:08:56 51°13.679 2°55.924 0.5   354.8 -999
2001-08-31 06:09:01 51°13.678 2°55.924 28.3   5.3 -999
2001-08-31 06:09:07 51°13.678 2°55.923 72   23.2 -999
2001-08-31 06:09:12 51°13.678 2°55.924 115   0.3 -999
2001-08-31 06:09:17 51°13.678 2°55.923 129.7   330.7 -999
2001-08-31 06:09:22 51°13.678 2°55.923 129.7 0.1 319.2 -999
2001-08-31 06:09:27 51°13.678 2°55.923 129.5   324.3 -999
2001-08-31 06:09:32 51°13.678 2°55.923 129.5   319.5 -999
2001-08-31 06:09:37 51°13.678 2°55.923 129.5   334.5 -999
2001-08-31 06:09:42 51°13.678 2°55.923 129.5   32.8 -999
2001-08-31 06:09:47 51°13.678 2°55.922 129.7   22.6 -999
2001-08-31 06:09:52 51°13.678 2°55.922 129.7   335 -999
2001-08-31 06:09:57 51°13.677 2°55.922 129.5   326.8 -999
2001-08-31 06:10:02 51°13.677 2°55.922 129.5   314.2 -999
2001-08-31 06:10:07 51°13.677 2°55.922 129.5   317.1 -999
2001-08-31 06:10:12 51°13.677 2°55.922 129.5   348.8 -999
2001-08-31 06:10:17 51°13.677 2°55.922 129.5   18.1 -999
2001-08-31 06:10:22 51°13.677 2°55.922 129.5   32.2 -999
2001-08-31 06:10:27 51°13.678 2°55.922 129.7   17.4 -999
2001-08-31 06:10:32 51°13.678 2°55.922 129.7   7.7 -999
2001-08-31 06:10:37 51°13.678 2°55.922 129.5   342.5 -999
2001-08-31 06:10:42 51°13.678 2°55.922 129.5   20.9 -999
2001-08-31 06:10:47 51°13.678 2°55.922 129.5   336.6 -999
2001-08-31 06:10:52 51°13.678 2°55.922 129.5   325 -999
2001-08-31 06:10:57 51°13.678 2°55.922 129.7   356.5 -999
2001-08-31 06:11:02 51°13.678 2°55.922 129.7   24.7 -999
2001-08-31 06:11:07 51°13.678 2°55.922 129.7   329.2 -999
2001-08-31 06:11:12 51°13.678 2°55.922 129.7   328.9 -999
2001-08-31 06:11:17 51°13.678 2°55.922 129.7   343.1 -999
2001-08-31 06:11:22 51°13.678 2°55.922 129.7   338.9 -999
2001-08-31 06:11:27 51°13.678 2°55.922 129.7   332.2 -999
2001-08-31 06:11:32 51°13.678 2°55.922 129.7   330.9 -999
2001-08-31 06:11:37 51°13.678 2°55.922 129.5   344.5 -999
2001-08-31 06:11:42 51°13.678 2°55.922 129.5   330.7 -999
2001-08-31 06:11:47 51°13.678 2°55.922 129.5   325.6 -999
2001-08-31 06:11:52 51°13.678 2°55.922 129.5   322.9 -999
2001-08-31 06:11:57 51°13.678 2°55.922 129.5   320.4 -999
2001-08-31 06:12:02 51°13.678 2°55.922 129.5   318.2 -999
2001-08-31 06:12:07 51°13.678 2°55.922 129.5   339.2 -999
2001-08-31 06:12:12 51°13.678 2°55.922 129.5   34.8 -999
2001-08-31 06:12:17 51°13.678 2°55.922 129.5   335.8 -999
2001-08-31 06:12:22 51°13.678 2°55.922 129.7   342.2 -999
2001-08-31 06:12:27 51°13.678 2°55.922 129.7   1.3 -999
2001-08-31 06:12:32 51°13.678 2°55.922 129.7   60.2 -999
2001-08-31 06:12:37 51°13.678 2°55.922 129.5   310.9 -999
2001-08-31 06:12:42 51°13.678 2°55.922 129.5   310.9 -999
2001-08-31 06:12:47 51°13.678 2°55.922 129.7   297.2 -999
2001-08-31 06:12:52 51°13.678 2°55.922 129.7   314 -999
2001-08-31 06:12:57 51°13.678 2°55.922 129.7   318.4 -999
2001-08-31 06:13:02 51°13.678 2°55.922 129.7   340.6 -999
2001-08-31 06:13:07 51°13.678 2°55.922 129.7   12 -999
2001-08-31 06:13:12 51°13.678 2°55.922 129.7   328.7 -999
2001-08-31 06:13:17 51°13.678 2°55.922 129.7   322.6 -999
2001-08-31 06:13:22 51°13.678 2°55.922 129.7   320 -999
2001-08-31 06:13:27 51°13.678 2°55.922 129.7   95.4 -999
2001-08-31 06:13:32 51°13.678 2°55.922 129.7   25.9 -999
2001-08-31 06:13:37 51°13.677 2°55.922 129.7   304.4 -999
2001-08-31 06:13:42 51°13.677 2°55.922 129.7   299.7 -999
2001-08-31 06:13:47 51°13.677 2°55.922 129.7   311.4 -999
2001-08-31 06:13:52 51°13.677 2°55.922 129.7   344.3 -999
2001-08-31 06:13:57 51°13.677 2°55.922 129.7   342.1 -999
2001-08-31 06:14:02 51°13.677 2°55.922 129.7   357.6 -999
2001-08-31 06:14:07 51°13.677 2°55.922 129.7   335.8 -999
2001-08-31 06:14:12 51°13.677 2°55.922 129.7   323.5 -999
2001-08-31 06:14:17 51°13.677 2°55.922 129.7   328.5 -999
2001-08-31 06:14:22 51°13.677 2°55.922 129.7   324.6 -999
2001-08-31 06:14:27 51°13.677 2°55.922 129.7   341.5 -999
2001-08-31 06:14:32 51°13.677 2°55.922 129.7   326.5 -999
2001-08-31 06:14:37 51°13.677 2°55.922 129.7   321 -999
2001-08-31 06:14:42 51°13.678 2°55.922 129.7   319.2 -999
2001-08-31 06:14:47 51°13.678 2°55.922 129.7   339 -999
2001-08-31 06:14:52 51°13.678 2°55.922 129.7   349.6 -999
2001-08-31 06:14:57 51°13.678 2°55.922 129.7   341.8 -999
2001-08-31 06:15:02 51°13.678 2°55.922 129.7   329.1 -999
2001-08-31 06:15:07 51°13.678 2°55.922 129.7   346.2 -999
2001-08-31 06:15:12 51°13.678 2°55.922 129.7   42.8 -999
2001-08-31 06:15:17 51°13.678 2°55.922 129.7   82.5 -999
2001-08-31 06:15:22 51°13.678 2°55.922 129.8   73.5 -999
2001-08-31 06:15:27 51°13.678 2°55.922 129.8   14.6 -999
2001-08-31 06:15:32 51°13.678 2°55.922 129.8   308 -999
2001-08-31 06:15:37 51°13.678 2°55.922 129.8   307.5 -999
2001-08-31 06:15:42 51°13.678 2°55.922 129.8   320.8 -999
2001-08-31 06:15:47 51°13.678 2°55.922 129.8   323.1 -999
2001-08-31 06:15:52 51°13.678 2°55.922 129.8   5.7 -999
2001-08-31 06:15:57 51°13.678 2°55.922 129.8   359.6 -999
2001-08-31 06:16:02 51°13.678 2°55.922 129.8   357.1 -999
2001-08-31 06:16:07 51°13.678 2°55.922 129.8   347.2 -999
2001-08-31 06:16:12 51°13.678 2°55.922 129.8   321 -999
2001-08-31 06:16:17 51°13.678 2°55.922 129.8   325.2 -999
2001-08-31 06:16:22 51°13.678 2°55.922 129.8   337.1 -999
2001-08-31 06:16:27 51°13.678 2°55.922 129.8   45.8 -999
2001-08-31 06:16:32 51°13.678 2°55.922 129.8   339.8 -999
2001-08-31 06:16:37 51°13.678 2°55.922 129.8   325.4 -999
2001-08-31 06:16:42 51°13.678 2°55.922 129.8   344.4 -999
2001-08-31 06:16:47 51°13.678 2°55.922 129.7   22.7 -999
2001-08-31 06:16:52 51°13.678 2°55.922 129.7   336.8 -999
2001-08-31 06:16:57 51°13.678 2°55.922 129.7   334.4 -999
2001-08-31 06:17:02 51°13.678 2°55.922 129.7   348.7 -999
2001-08-31 06:17:07 51°13.678 2°55.922 129.7   333.1 -999
2001-08-31 06:17:12 51°13.678 2°55.923 129.8   63.2 -999
2001-08-31 06:17:17 51°13.678 2°55.923 129.8   126.6 -999
2001-08-31 06:17:22 51°13.678 2°55.923 129.8   190.7 -999
2001-08-31 06:17:27 51°13.678 2°55.923 129.8   294.7 -999
2001-08-31 06:17:32 51°13.678 2°55.923 129.7   310.9 -999
2001-08-31 06:17:37 51°13.678 2°55.923 129.7   352.6 -999
2001-08-31 06:17:42 51°13.678 2°55.923 129.8   130.4 -999
2001-08-31 06:17:47 51°13.678 2°55.923 129.8   125.2 -999
2001-08-31 06:17:52 51°13.678 2°55.923 129.7   327.2 -999
2001-08-31 06:17:57 51°13.678 2°55.923 129.8   113.3 -999
2001-08-31 06:18:02 51°13.678 2°55.923 129.8   128.7 -999
2001-08-31 06:18:07 51°13.678 2°55.923 129.8   125 -999
2001-08-31 06:18:12 51°13.678 2°55.923 129.8   284.1 -999
2001-08-31 06:18:17 51°13.678 2°55.923 129.8   331.3 -999
2001-08-31 06:18:22 51°13.678 2°55.923 129.7   44.5 -999
2001-08-31 06:18:26 51°13.678 2°55.923 129.8   108.8 -999
2001-08-31 07:12:15 51°13.68 2°55.922 130   302.8 -999
2001-08-31 07:12:19 51°13.68 2°55.922 130   347.9 -999
2001-08-31 07:12:24 51°13.68 2°55.922 130   4 -999
2001-08-31 07:12:29 51°13.68 2°55.922 129.8   350.1 -999
2001-08-31 07:12:34 51°13.68 2°55.922 129.8   324.7 -999
2001-08-31 07:12:40 51°13.679 2°55.922 129.8   316.2 -999
2001-08-31 07:12:45 51°13.679 2°55.922 129.8   230.9 -999
2001-08-31 07:12:49 51°13.679 2°55.922 130   278.6 -999
2001-08-31 07:12:55 51°13.679 2°55.923 130   318.5 -999
2001-08-31 07:13:00 51°13.679 2°55.923 130   323.4 -999
2001-08-31 07:13:06 51°13.679 2°55.923 130   88.6 -999
2001-08-31 07:13:10 51°13.679 2°55.923 130   282.3 -999
2001-08-31 07:13:15 51°13.679 2°55.923 130   218.3 -999
2001-08-31 07:13:20 51°13.679 2°55.923 130   251 -999
2001-08-31 07:13:26 51°13.679 2°55.923 130   5.7 -999
2001-08-31 07:13:30 51°13.679 2°55.923 130   3.6 -999
2001-08-31 07:13:35 51°13.679 2°55.923 130   7 -999
2001-08-31 07:13:40 51°13.679 2°55.923 130   11.4 -999
2001-08-31 07:13:45 51°13.679 2°55.923 130   239.7 -999
2001-08-31 07:13:50 51°13.679 2°55.923 130   184.7 -999
2001-08-31 07:13:55 51°13.679 2°55.923 130   189.9 -999
2001-08-31 07:14:00 51°13.679 2°55.923 130   165.4 -999
2001-08-31 07:14:05 51°13.679 2°55.923 130   48.6 -999
2001-08-31 07:14:10 51°13.679 2°55.923 130   21.2 6.4
2001-08-31 07:14:14 51°13.679 2°55.923 130   9.5 6.4
2001-08-31 07:14:17 51°13.679 2°55.923 130   11.8 6.4
2001-08-31 07:14:21 51°13.679 2°55.923 130   36.8 6.4
2001-08-31 07:14:26 51°13.679 2°55.923 130   41.2 6.4
2001-08-31 07:14:30 51°13.679 2°55.923 130   52.3 6.4
2001-08-31 07:14:36 51°13.679 2°55.923 130   340.4 6.4
2001-08-31 07:14:40 51°13.679 2°55.923 130   327.2 6.4
2001-08-31 07:14:46 51°13.679 2°55.923 130   315.8 6.4
2001-08-31 07:14:50 51°13.679 2°55.922 130   318.1 6.4
2001-08-31 07:14:56 51°13.679 2°55.922 130   327.5 6.4
2001-08-31 07:15:00 51°13.679 2°55.922 130   343.2 6.4
2001-08-31 07:15:06 51°13.679 2°55.922 130   328.6 6.4
2001-08-31 07:15:10 51°13.679 2°55.922 129.8   307.6 6.4
2001-08-31 07:15:16 51°13.679 2°55.922 130   288.4 6.4
2001-08-31 07:15:20 51°13.679 2°55.922 130   302.1 6.4
2001-08-31 07:15:26 51°13.679 2°55.922 130   243.1 6.4
2001-08-31 07:15:30 51°13.679 2°55.922 130   350.7 6.4
2001-08-31 07:15:36 51°13.679 2°55.922 130   305.6 6.4
2001-08-31 07:15:40 51°13.679 2°55.922 130   305.1 6.4
2001-08-31 07:15:46 51°13.679 2°55.922 130.2   298 6.4
2001-08-31 07:15:50 51°13.679 2°55.922 130.2   294.4 6.4
2001-08-31 07:15:56 51°13.679 2°55.922 130.2   268.3 6.4
2001-08-31 07:16:00 51°13.679 2°55.922 130.2   330.4 6.3
2001-08-31 07:16:06 51°13.679 2°55.922 130.3   334.7 6.3
2001-08-31 07:16:10 51°13.678 2°55.922 130.2   351 6.4
2001-08-31 07:16:16 51°13.678 2°55.922 130.2   100.4 6.4
2001-08-31 07:16:20 51°13.678 2°55.922 130.2   299.3 6.4
2001-08-31 07:16:26 51°13.678 2°55.922 130   288.4 6.4
2001-08-31 07:16:30 51°13.678 2°55.922 130   290.8 6.4
2001-08-31 07:16:36 51°13.678 2°55.922 130.2   285.1 6.4
2001-08-31 07:16:40 51°13.678 2°55.922 130.2   279.3 6.4
2001-08-31 07:16:46 51°13.678 2°55.922 130.2   304.8 6.4
2001-08-31 07:16:50 51°13.678 2°55.922 130.2   327.6 6.4
2001-08-31 07:16:56 51°13.678 2°55.922 130.2   14.9 6.5
2001-08-31 07:17:00 51°13.678 2°55.922 130.2   11.7 6.4
2001-08-31 07:17:06 51°13.678 2°55.922 130.2   311.8 6.4
2001-08-31 07:17:10 51°13.678 2°55.922 130.3   298 6.4
2001-08-31 07:17:16 51°13.678 2°55.922 130.2   286 6.4
2001-08-31 07:17:20 51°13.678 2°55.922 130.2   258.4 6.5
2001-08-31 07:17:26 51°13.678 2°55.922 130.2   319.1 6.4
2001-08-31 07:17:30 51°13.678 2°55.922 130.2   288.4 6.4
2001-08-31 07:17:36 51°13.678 2°55.922 130.2   242.4 6.5
2001-08-31 07:17:40 51°13.678 2°55.922 130.3   267.5 6.5
2001-08-31 07:17:46 51°13.678 2°55.922 130.3   330.7 6.5
2001-08-31 07:17:50 51°13.678 2°55.922 130.2   321.8 6.5
2001-08-31 07:17:56 51°13.678 2°55.922 130.2   311.5 6.5
2001-08-31 07:18:00 51°13.678 2°55.922 130.2   316.2 6.5
2001-08-31 07:18:06 51°13.678 2°55.922 130.2   311.9 6.4
2001-08-31 07:18:10 51°13.678 2°55.922 130.2   316.2 6.4
2001-08-31 07:18:16 51°13.678 2°55.922 130.2   308 6.5
2001-08-31 07:18:20 51°13.678 2°55.922 130.3   279.5 6.5
2001-08-31 07:18:26 51°13.678 2°55.922 130.3   301.4 6.5
2001-08-31 07:18:30 51°13.678 2°55.922 130.3   297.9 6.5
2001-08-31 07:18:36 51°13.678 2°55.922 130.3   305.3 6.5
2001-08-31 07:18:40 51°13.678 2°55.922 130.3   268.6 6.5
2001-08-31 07:18:46 51°13.678 2°55.922 130.3   328 6.5
2001-08-31 07:18:50 51°13.678 2°55.922 130.2   335.2 6.5
2001-08-31 07:18:56 51°13.678 2°55.922 130.2   316.8 6.5
2001-08-31 07:19:00 51°13.678 2°55.922 130.2   272.6 6.5
2001-08-31 07:19:06 51°13.678 2°55.922 130.2   256.7 6.5
2001-08-31 07:19:10 51°13.678 2°55.922 130.3   244.5 6.5
2001-08-31 07:19:16 51°13.678 2°55.922 130.3   284.2 6.5
2001-08-31 07:19:20 51°13.678 2°55.922 130.3   282.9 6.5
2001-08-31 07:19:26 51°13.678 2°55.922 130.3   269.8 6.5
2001-08-31 07:19:30 51°13.678 2°55.922 130.3   272.6 6.5
2001-08-31 07:19:36 51°13.678 2°55.922 130.3   277 6.5
2001-08-31 07:19:40 51°13.678 2°55.922 130.2   286.1 6.5
2001-08-31 07:19:46 51°13.678 2°55.922 130.2   302.1 6.5
2001-08-31 07:19:50 51°13.678 2°55.922 130.3   305.5 6.5
2001-08-31 07:19:56 51°13.678 2°55.922 130.3   311.4 6.5
2001-08-31 07:20:00 51°13.678 2°55.922 130.3   299.8 6.5
2001-08-31 07:20:06 51°13.678 2°55.922 130.3   291.6 6.5
2001-08-31 07:20:10 51°13.678 2°55.922 130.3   311.4 6.5
2001-08-31 07:20:16 51°13.678 2°55.922 130.3   297 6.5
2001-08-31 07:20:20 51°13.678 2°55.922 130.2   289.6 6.5
2001-08-31 07:20:26 51°13.678 2°55.922 130.2   303.7 6.5
2001-08-31 07:20:30 51°13.678 2°55.922 130.3   292.7 6.5
2001-08-31 07:20:36 51°13.678 2°55.922 130.3   306.5 6.5
2001-08-31 07:20:40 51°13.678 2°55.922 130.3   287.1 6.5
2001-08-31 07:20:46 51°13.678 2°55.922 130.3   292.3 6.5
2001-08-31 07:20:50 51°13.678 2°55.922 130.3   307.4 6.5
2001-08-31 07:20:56 51°13.678 2°55.922 130.3   311.7 6.5
2001-08-31 07:21:00 51°13.678 2°55.922 130.3   301.9 6.5
2001-08-31 07:21:06 51°13.678 2°55.922 130.3   291.3 6.5
2001-08-31 07:21:10 51°13.678 2°55.922 130.3   323.3 6.5
2001-08-31 07:21:16 51°13.678 2°55.922 130.3   311.7 6.5
2001-08-31 07:21:20 51°13.678 2°55.922 130.3   300.5 6.5
2001-08-31 07:21:26 51°13.678 2°55.922 130.3   315.8 6.5
2001-08-31 07:21:30 51°13.678 2°55.922 130.3   315.9 6.5
2001-08-31 07:21:36 51°13.678 2°55.922 130.3   316.6 6.5
2001-08-31 07:21:40 51°13.678 2°55.922 130.2   323.7 6.5
2001-08-31 07:21:46 51°13.678 2°55.922 130.3   295.6 6.5
2001-08-31 07:21:50 51°13.678 2°55.922 130.3   266.8 6.5
2001-08-31 07:21:56 51°13.678 2°55.922 130.3   277.4 6.5
2001-08-31 07:22:00 51°13.678 2°55.922 130.3   307.3 6.5
2001-08-31 07:22:06 51°13.678 2°55.922 130.3   328.1 6.5
2001-08-31 07:22:10 51°13.678 2°55.922 130.3   305.4 6.5
2001-08-31 07:22:16 51°13.678 2°55.922 130.3   311.2 6.5
2001-08-31 07:22:20 51°13.678 2°55.922 130.2   330.1 6.5
2001-08-31 07:22:26 51°13.678 2°55.922 130.2   205.6 6.5
2001-08-31 07:22:30 51°13.678 2°55.922 130.3   280.1 6.5
2001-08-31 07:22:36 51°13.678 2°55.922 130.3   298.7 6.5
2001-08-31 07:22:40 51°13.678 2°55.922 130.3   285.4 6.5
2001-08-31 07:22:46 51°13.678 2°55.922 130.3   284.8 6.5
2001-08-31 07:22:50 51°13.678 2°55.922 130.3   299 6.5
2001-08-31 07:22:56 51°13.678 2°55.922 130.3   314.3 6.5
2001-08-31 07:23:00 51°13.677 2°55.922 130.2   307.3 6.5
2001-08-31 07:23:06 51°13.677 2°55.922 130.2   311.4 6.5
2001-08-31 07:23:10 51°13.677 2°55.922 130.2   303.5 6.5
2001-08-31 07:23:16 51°13.677 2°55.922 130.2   270.9 6.5
2001-08-31 07:23:20 51°13.677 2°55.922 130.3   274 6.5
2001-08-31 07:23:26 51°13.677 2°55.922 130.3   279.6 6.5
2001-08-31 07:23:30 51°13.677 2°55.922 130.3   261.6 6.5
2001-08-31 07:23:36 51°13.677 2°55.922 130.3   251.2 6.5
2001-08-31 07:23:40 51°13.677 2°55.922 130.3   266.5 6.5
2001-08-31 07:23:46 51°13.677 2°55.922 130.3   329.2 6.5
2001-08-31 07:23:50 51°13.677 2°55.923 130.3   327.8 6.5
2001-08-31 07:23:56 51°13.677 2°55.923 130.3   275.7 6.5
2001-08-31 07:24:00 51°13.677 2°55.923 130.3   259.5 6.5
2001-08-31 07:24:06 51°13.677 2°55.923 130.3   277.6 6.5
2001-08-31 07:24:10 51°13.677 2°55.923 130.3   307.6 6.5
2001-08-31 07:24:16 51°13.677 2°55.923 130.3   284.8 6.5
2001-08-31 07:24:20 51°13.677 2°55.923 130.3   270.7 6.5
2001-08-31 07:24:26 51°13.677 2°55.923 130.3   302.2 6.5
2001-08-31 07:24:30 51°13.677 2°55.923 130.3   309.1 6.5
2001-08-31 07:24:36 51°13.677 2°55.923 130.3   306.5 6.5
2001-08-31 07:24:40 51°13.677 2°55.923 130.3   301 6.5
2001-08-31 07:24:46 51°13.677 2°55.923 130.3   302 6.5
2001-08-31 07:24:50 51°13.677 2°55.923 130.3   306.2 6.5
2001-08-31 07:24:56 51°13.677 2°55.923 130.3   164.6 6.5
2001-08-31 07:25:00 51°13.677 2°55.923 130.3   281.4 6.5
2001-08-31 07:25:06 51°13.677 2°55.922 130.3   255.9 6.4
2001-08-31 07:25:10 51°13.677 2°55.922 130.3   265.7 6.3
2001-08-31 07:25:16 51°13.677 2°55.923 130.3   293.2 6.5
2001-08-31 07:25:20 51°13.677 2°55.923 130.3   327.3 6.5
2001-08-31 07:25:26 51°13.677 2°55.922 130.3   315.6 6.5
2001-08-31 07:25:30 51°13.677 2°55.922 130.5   293.7 6.5
2001-08-31 07:25:36 51°13.677 2°55.923 130.5   300.5 6.4
2001-08-31 07:25:40 51°13.677 2°55.923 130.3   318.3 6.5
2001-08-31 07:25:46 51°13.677 2°55.923 130.3   154.2 -999
2001-08-31 07:25:50 51°13.677 2°55.923 130.2   267.5 6.5
2001-08-31 07:25:56 51°13.677 2°55.923 130.3   291.3 6.5
2001-08-31 07:26:00 51°13.677 2°55.923 130.3   281.7 6.5
2001-08-31 07:26:06 51°13.677 2°55.923 130.5   312 6.5
2001-08-31 07:26:10 51°13.677 2°55.923 130.5   298.5 6.5
2001-08-31 07:26:16 51°13.677 2°55.923 130.3   285.7 6.5
2001-08-31 07:26:20 51°13.677 2°55.923 130.3   297.6 6.5
2001-08-31 07:26:26 51°13.677 2°55.923 130.3   270.1 6.3
2001-08-31 07:26:30 51°13.678 2°55.923 130.3   50.3 6.5
2001-08-31 07:26:36 51°13.678 2°55.923 130.2   46.3 6.4
2001-08-31 07:26:40 51°13.678 2°55.924 130.2   334.4 6.5
2001-08-31 07:26:46 51°13.678 2°55.924 130.2   269.4 6.5
2001-08-31 07:26:50 51°13.678 2°55.925 130.3   264.3 6.5
2001-08-31 07:26:56 51°13.679 2°55.925 130.3   272 6.5
2001-08-31 07:27:00 51°13.679 2°55.925 130.3   270.8 6.5
2001-08-31 07:27:06 51°13.679 2°55.925 130.5   294.8 6.5
2001-08-31 07:27:10 51°13.679 2°55.925 130.5   342.8 6.5
2001-08-31 07:27:16 51°13.679 2°55.925 130.3   4.5 6.5
2001-08-31 07:27:20 51°13.679 2°55.925 130.3   356.1 6.5
2001-08-31 07:27:26 51°13.678 2°55.925 130.3   279 6.5
2001-08-31 07:27:30 51°13.678 2°55.925 130.3   273.2 6.5
2001-08-31 07:27:36 51°13.678 2°55.925 130.3   280.1 6.5
2001-08-31 07:27:40 51°13.678 2°55.925 130.5   290.1 6.5
2001-08-31 07:27:46 51°13.678 2°55.925 130.3   285.2 6.5
2001-08-31 07:27:50 51°13.678 2°55.925 130.3   299.7 6.5
2001-08-31 07:27:56 51°13.678 2°55.925 130.3   310.5 6.5
2001-08-31 07:28:00 51°13.678 2°55.925 130.3   288.8 6.5
2001-08-31 07:28:06 51°13.678 2°55.925 130.3   280 6.5
2001-08-31 07:28:10 51°13.678 2°55.925 130.3   295.9 6.4
2001-08-31 07:28:16 51°13.678 2°55.925 130.5   276.4 6.5
2001-08-31 07:28:20 51°13.678 2°55.925 130.5   271.3 6.5
2001-08-31 07:28:26 51°13.678 2°55.925 130.3   337.7 6.5
2001-08-31 07:28:30 51°13.678 2°55.925 130.3   295.9 6.6
2001-08-31 07:28:36 51°13.678 2°55.925 130.3   302.4 6.6
2001-08-31 07:28:40 51°13.678 2°55.925 130.3   332.3 6.5
2001-08-31 07:28:46 51°13.678 2°55.925 130.3   298.4 -999
2001-08-31 07:28:50 51°13.678 2°55.925 130.5   275.5 6.3
2001-08-31 07:28:56 51°13.678 2°55.925 130.5   327.6 6.4
2001-08-31 07:29:00 51°13.678 2°55.925 130.5   307.4 6.5
2001-08-31 07:29:06 51°13.678 2°55.925 130.3   292.7 6.5
2001-08-31 07:29:10 51°13.678 2°55.925 130.3   276 6.5
2001-08-31 07:29:16 51°13.678 2°55.925 130.3   287.7 6.6
2001-08-31 07:29:20 51°13.678 2°55.925 130.5   298.5 6.6
2001-08-31 07:29:26 51°13.678 2°55.925 130.5   311.9 6.5
2001-08-31 07:29:30 51°13.678 2°55.925 130.5   312.5 6.6
2001-08-31 07:29:36 51°13.678 2°55.925 130.5   314.1 6.5
2001-08-31 07:29:40 51°13.678 2°55.925 130.3   272.1 6.6
2001-08-31 07:29:46 51°13.678 2°55.925 130.3   316.5 6.5
2001-08-31 07:29:50 51°13.678 2°55.925 130.3   301.2 6.6
2001-08-31 07:29:56 51°13.678 2°55.925 130.3   281.5 6.6
2001-08-31 07:30:00 51°13.678 2°55.925 130.3   282.1 6.5
2001-08-31 07:30:06 51°13.678 2°55.925 130.5   317.2 6.4
2001-08-31 07:30:10 51°13.677 2°55.925 130.5   324.6 6.5
2001-08-31 07:30:16 51°13.677 2°55.925 130.3   314.5 6
2001-08-31 07:30:20 51°13.677 2°55.925 130.3   303.5 6.5
2001-08-31 07:30:26 51°13.678 2°55.925 130.3   289.7 6.3
2001-08-31 07:30:30 51°13.678 2°55.925 130.5   290 6.5
2001-08-31 07:30:36 51°13.678 2°55.925 130.5   290.8 6.5
2001-08-31 07:30:40 51°13.678 2°55.925 130.5   310 6.3
2001-08-31 07:30:46 51°13.678 2°55.925 130.5   297.5 6.6
2001-08-31 07:30:50 51°13.678 2°55.925 130.3   318.8 6.6
2001-08-31 07:30:56 51°13.678 2°55.925 130.5   317.2 6.5
2001-08-31 07:31:00 51°13.678 2°55.925 130.5   275.6 -999
2001-08-31 07:31:06 51°13.677 2°55.925 130.7   270.3 6.6
2001-08-31 07:31:10 51°13.677 2°55.925 130.8   272 6.6
2001-08-31 07:31:16 51°13.677 2°55.925 131   254.4 6.6
2001-08-31 07:31:20 51°13.677 2°55.925 131   251.7 6.6
2001-08-31 07:31:26 51°13.677 2°55.925 131   345.5 6.6
2001-08-31 07:31:30 51°13.677 2°55.925 130.8   5.5 6.6
2001-08-31 07:31:36 51°13.677 2°55.925 130.8   316.3 6.6
2001-08-31 07:31:40 51°13.677 2°55.925 130.7   285.4 6.6
2001-08-31 07:31:46 51°13.677 2°55.925 130.8   270.5 6.6
2001-08-31 07:31:50 51°13.677 2°55.925 131   268.8 6.6
2001-08-31 07:31:56 51°13.677 2°55.925 131   280.6 6.6
2001-08-31 07:32:02 51°13.677 2°55.925 131   285.1 6.5
2001-08-31 07:32:06 51°13.677 2°55.925 131.2   287.5 6.6
2001-08-31 07:32:10 51°13.677 2°55.925 131.2   286.7 6.6
2001-08-31 07:32:16 51°13.677 2°55.925 131.2   267.1 6.6
2001-08-31 07:32:20 51°13.677 2°55.925 131.2   292.3 6.6
2001-08-31 07:32:26 51°13.677 2°55.925 131   270.8 6.6
2001-08-31 07:32:30 51°13.677 2°55.925 131   242 -999
2001-08-31 07:32:36 51°13.677 2°55.925 131   344.8 6.6
2001-08-31 07:32:40 51°13.677 2°55.925 131   328.9 6.5
2001-08-31 07:32:46 51°13.677 2°55.925 130.8   330.3 6.6
2001-08-31 07:32:50 51°13.677 2°55.925 130.8   30.5 6.5
2001-08-31 07:32:56 51°13.677 2°55.925 130.7   356.6 6.6
2001-08-31 07:33:00 51°13.677 2°55.925 130.5   354.3 6.6
2001-08-31 07:33:06 51°13.677 2°55.925 130.2   8 6.6
2001-08-31 07:33:10 51°13.677 2°55.924 130   27.4 6.6
2001-08-31 07:33:16 51°13.677 2°55.924 129.7   189.7 6.6
2001-08-31 07:33:20 51°13.677 2°55.924 129.3   195.7 -999
2001-08-31 07:33:26 51°13.677 2°55.924 129.2   198.6 6.6
2001-08-31 07:33:30 51°13.677 2°55.924 128.8   188.1 6.6
2001-08-31 07:33:36 51°13.677 2°55.924 128.5 0.1 164.2 6.5
2001-08-31 07:33:40 51°13.677 2°55.924 128.2   179.4 6.6
2001-08-31 07:33:46 51°13.677 2°55.924 127.8   190.5 6.6
2001-08-31 07:33:50 51°13.677 2°55.924 127.3   187.6 6.6
2001-08-31 07:33:56 51°13.677 2°55.924 126.7   189.3 6.6
2001-08-31 07:34:00 51°13.677 2°55.924 126   185.3 6.6
2001-08-31 07:34:06 51°13.677 2°55.924 125.2   178.2 6.6
2001-08-31 07:34:10 51°13.677 2°55.924 124.5   180.1 6.6
2001-08-31 07:34:16 51°13.677 2°55.924 123.7 0.1 188.5 6.6
2001-08-31 07:34:20 51°13.677 2°55.924 122.8 0.1 189.6 6.6
2001-08-31 07:34:26 51°13.677 2°55.924 122 0.1 188.6 -999
2001-08-31 07:34:30 51°13.676 2°55.924 121.2 0.1 188.3 6.7
2001-08-31 07:34:36 51°13.676 2°55.924 120.3 0.1 188.7 6.6
2001-08-31 07:34:40 51°13.676 2°55.924 119.5 0.1 198.1 -999
2001-08-31 07:34:46 51°13.676 2°55.924 118.7   214 -999
2001-08-31 07:34:50 51°13.676 2°55.924 118   206 6.7
2001-08-31 07:34:56 51°13.676 2°55.924 117.3   198.9 6.6
2001-08-31 07:35:00 51°13.676 2°55.924 116.8   200.5 6.7
2001-08-31 07:35:06 51°13.676 2°55.924 116.5   202.5 6.7
2001-08-31 07:35:10 51°13.676 2°55.924 116   200.8 -999
2001-08-31 07:35:16 51°13.676 2°55.924 115.7   204.2 6.7
2001-08-31 07:35:20 51°13.676 2°55.924 115.5   208.6 6.9
2001-08-31 07:35:26 51°13.676 2°55.924 115.3   199.8 6.7
2001-08-31 07:35:30 51°13.676 2°55.924 115.2   218 6.7
2001-08-31 07:35:36 51°13.676 2°55.924 115   258.6 6.7
2001-08-31 07:35:40 51°13.676 2°55.924 114.8   251.1 6.7
2001-08-31 07:35:46 51°13.676 2°55.924 114.7   240.8 6.7
2001-08-31 07:35:50 51°13.676 2°55.924 114.3   230.2 6.7
2001-08-31 07:35:56 51°13.676 2°55.924 114.2   214.2 6.7
2001-08-31 07:36:00 51°13.676 2°55.924 113.8   213.5 6.7
2001-08-31 07:36:06 51°13.676 2°55.924 113.5   206.5 -999
2001-08-31 07:36:10 51°13.676 2°55.924 113   180.3 6.7
2001-08-31 07:36:16 51°13.676 2°55.924 112.7   208.4 6.7
2001-08-31 07:36:20 51°13.676 2°55.924 112.2   207.8 -999
2001-08-31 07:36:26 51°13.676 2°55.924 111.8   198.4 6.4
2001-08-31 07:36:30 51°13.676 2°55.924 111.3   204.9 6.6
2001-08-31 07:36:36 51°13.675 2°55.924 110.8   184.5 6.7
2001-08-31 07:36:40 51°13.675 2°55.924 110.3   185 6.7
2001-08-31 07:36:46 51°13.675 2°55.924 109.8   189.8 6.7
2001-08-31 07:36:50 51°13.675 2°55.924 109.3   186.8 6.7
2001-08-31 07:36:56 51°13.675 2°55.924 108.7   199.5 6.7
2001-08-31 07:37:00 51°13.675 2°55.924 108.2 0.1 202.9 6.6
2001-08-31 07:37:06 51°13.675 2°55.923 107.5 0.1 206.8 6.7
2001-08-31 07:37:10 51°13.675 2°55.923 106.8 0.1 199.8 6.4
2001-08-31 07:37:16 51°13.675 2°55.923 106.2 0.1 197.4 6.8
2001-08-31 07:37:20 51°13.675 2°55.923 105.5 0.1 196.4 6.7
2001-08-31 07:37:26 51°13.675 2°55.923 104.8 0.1 200.8 6.8
2001-08-31 07:37:30 51°13.675 2°55.923 104 0.1 208.6 6.6
2001-08-31 07:37:36 51°13.674 2°55.923 103.3   208.3 6.8
2001-08-31 07:37:40 51°13.674 2°55.923 102.5 0.1 213.4 6.8
2001-08-31 07:37:46 51°13.674 2°55.923 101.8 0.1 210.6 6.7
2001-08-31 07:37:50 51°13.674 2°55.923 101 0.1 218.4 6.8
2001-08-31 07:37:56 51°13.674 2°55.923 100.3 0.1 217.5 6.7
2001-08-31 07:38:00 51°13.674 2°55.923 99.7   208.2 6.8
2001-08-31 07:38:06 51°13.674 2°55.923 99   201.1 6.8
2001-08-31 07:38:10 51°13.674 2°55.923 98.3   218.5 6.8
2001-08-31 07:38:16 51°13.674 2°55.923 97.7   222.2 6.8
2001-08-31 07:38:20 51°13.674 2°55.923 97   232.4 6.8
2001-08-31 07:38:26 51°13.674 2°55.922 96.5 0.1 264.9 6.8
2001-08-31 07:38:30 51°13.674 2°55.922 96.2 0.2 270.8 6.9
2001-08-31 07:38:36 51°13.674 2°55.919 95.5 0.7 273.7 7
2001-08-31 07:38:40 51°13.674 2°55.916 95.3 1.1 273.1 7.2
2001-08-31 07:38:46 51°13.674 2°55.911 95.5 1.7 273.8 8
2001-08-31 07:38:50 51°13.674 2°55.907 95.7 2.1 274.2 -999
2001-08-31 07:38:57 51°13.675 2°55.899 95.2 2.5 274.5 -999
2001-08-31 07:39:02 51°13.675 2°55.892 94.5 3 274.1 -999
2001-08-31 07:39:06 51°13.675 2°55.886 93.7 3.3 273.8 -999
2001-08-31 07:39:12 51°13.676 2°55.876 92.8 3.6 272.9 -999
2001-08-31 07:39:16 51°13.676 2°55.869 92 3.8 271.8 -999
2001-08-31 07:39:22 51°13.676 2°55.858 91 4 270.9 -999
2001-08-31 07:39:26 51°13.676 2°55.851 90 4 269.6 -999
2001-08-31 07:39:32 51°13.675 2°55.841 88.8 3.8 268.4 -999
2001-08-31 07:39:36 51°13.675 2°55.835 87.7 3.7 267.6 -999
2001-08-31 07:39:42 51°13.675 2°55.826 86.3 3.6 266.7 -999
2001-08-31 07:39:46 51°13.674 2°55.82 85 3.5 265.5 -999
2001-08-31 07:39:52 51°13.674 2°55.811 83.7 3.3 264.4 -999
2001-08-31 07:39:56 51°13.673 2°55.806 82.5 3.2 263.4 10.6
2001-08-31 07:40:00 51°13.673 2°55.8 81.3 3.1 262.5 10.4
2001-08-31 07:40:06 51°13.672 2°55.793 80.3 3 261.3 10.5
2001-08-31 07:40:11 51°13.671 2°55.788 79.2 2.9 260.5 10.3
2001-08-31 07:40:16 51°13.67 2°55.783 78.2 2.8 259.6 10.5
2001-08-31 07:40:20 51°13.67 2°55.779 77 2.7 259.2 10.3
2001-08-31 07:40:26 51°13.669 2°55.772 76.2 2.4 259.1 9.5
2001-08-31 07:40:30 51°13.669 2°55.768 75.2 2.1 261.7 9.3
2001-08-31 07:40:36 51°13.67 2°55.766 72.3 1.2 269.8 9.3
2001-08-31 07:40:40 51°13.67 2°55.766 67 0.7 297.2 9.4
2001-08-31 07:40:46 51°13.672 2°55.767 60.5 0.9 19.4 9.8
2001-08-31 07:40:50 51°13.674 2°55.77 52.5 1.6 30.7 10.8
2001-08-31 07:40:56 51°13.678 2°55.774 44 2.6 30.4 11.4
2001-08-31 07:41:00 51°13.682 2°55.776 35.7 3 27.5 12.1
2001-08-31 07:41:06 51°13.686 2°55.779 28.5 3.2 22.4 12.4
2001-08-31 07:41:10 51°13.689 2°55.781 24.3 3 20 12.4
2001-08-31 07:41:16 51°13.693 2°55.782 22.2 2.5 17.3 12.1
2001-08-31 07:41:20 51°13.694 2°55.783 19 1.9 16.3 12
2001-08-31 07:41:26 51°13.695 2°55.784 16.2 1.3 14.6 12.1
2001-08-31 07:41:30 51°13.695 2°55.784 14.2 0.3 22.2 12
2001-08-31 07:41:36 51°13.694 2°55.783 13.3 0.5 182.2 11.9
2001-08-31 07:41:40 51°13.692 2°55.783 13 1 185.7 11.8
2001-08-31 07:41:46 51°13.691 2°55.783 13.3 1.2 187.6 -999
2001-08-31 07:41:52 51°13.69 2°55.782 13.8 0.8 192.7 -999
2001-08-31 07:41:57 51°13.691 2°55.782 11.2 0.1 226.3 -999
2001-08-31 07:42:02 51°13.693 2°55.782 5.8 0.7 351.8 -999
2001-08-31 07:42:06 51°13.695 2°55.781 359.2 1.7 351.9 -999
2001-08-31 07:42:12 51°13.7 2°55.779 350.8 2.6 346.9 -999
2001-08-31 07:42:16 51°13.704 2°55.776 343.3 3.4 340.4 12.8
2001-08-31 07:42:20 51°13.709 2°55.772 336.7 4 335.4 12.1
2001-08-31 07:42:26 51°13.716 2°55.765 332.2 4.8 329.8 12.2
2001-08-31 07:42:30 51°13.721 2°55.76 329.3 5.2 327.3 11.3
2001-08-31 07:42:36 51°13.729 2°55.751 328.5 5.6 325.2 10.5
2001-08-31 07:42:40 51°13.735 2°55.745 327.5 5.9 324.2 10.1
2001-08-31 07:42:46 51°13.744 2°55.735 326.8 6.2 323.4 9.2
2001-08-31 07:42:50 51°13.75 2°55.728 327.3 6.4 323.3 11.1
2001-08-31 07:42:56 51°13.759 2°55.718 327.3 6.6 323.2 10.7
2001-08-31 07:43:00 51°13.764 2°55.711 327.8 6.7 323.3 10.7
2001-08-31 07:43:06 51°13.773 2°55.7 328.2 6.9 323.7 10.7
2001-08-31 07:43:10 51°13.78 2°55.693 328.7 7 324.2 10.7
2001-08-31 07:43:16 51°13.79 2°55.682 329.2 7.1 325 10.5
2001-08-31 07:43:20 51°13.797 2°55.675 329.8 7.2 325.7 10.7
2001-08-31 07:43:26 51°13.806 2°55.664 330.5 7.2 326.4 10.9
2001-08-31 07:43:30 51°13.813 2°55.657 331.3 7.3 327.2 10.9
2001-08-31 07:43:36 51°13.824 2°55.647 332.3 7.3 328.2 10.9
2001-08-31 07:43:40 51°13.831 2°55.641 333.8 7.4 329.5 10.4
2001-08-31 07:43:46 51°13.842 2°55.631 335.5 7.4 331.1 10.8
2001-08-31 07:43:50 51°13.849 2°55.625 336.8 7.5 332.2 10.7
2001-08-31 07:43:56 51°13.86 2°55.616 337.3 7.5 333.1 10.1
2001-08-31 07:44:00 51°13.868 2°55.611 337.8 7.5 333.6 9.9
2001-08-31 07:44:06 51°13.879 2°55.602 338.2 7.5 334.1 9.7
2001-08-31 07:44:10 51°13.887 2°55.596 338.5 7.6 334.5 9.9
2001-08-31 07:44:16 51°13.898 2°55.587 338.7 7.6 334.7 10.2
2001-08-31 07:44:20 51°13.906 2°55.582 339 7.7 334.9 10.2
2001-08-31 07:44:26 51°13.918 2°55.573 339 7.8 335 10.5
2001-08-31 07:44:30 51°13.926 2°55.567 339.2 7.9 335.2 10.4
2001-08-31 07:44:36 51°13.938 2°55.557 339.3 8 335.3 10.4
2001-08-31 07:44:40 51°13.946 2°55.551 339.5 8 335.4 10.4
2001-08-31 07:44:46 51°13.958 2°55.542 339.2 7.9 335.5 10.4
2001-08-31 07:44:50 51°13.966 2°55.537 339.3 7.8 335.6 10.5
2001-08-31 07:44:56 51°13.977 2°55.529 339.2 7.5 335.6 10.4
2001-08-31 07:45:00 51°13.984 2°55.524 339.3 7.3 335.7 10.5
2001-08-31 07:45:06 51°13.994 2°55.517 339.5 7.1 335.8 10.4
2001-08-31 07:45:10 51°14.001 2°55.512 339.5 6.9 335.9 10.5
2001-08-31 07:45:16 51°14.011 2°55.505 339.7 6.7 336.1 10.5
2001-08-31 07:45:20 51°14.018 2°55.5 339.8 6.5 336.1 10.5
2001-08-31 07:45:26 51°14.027 2°55.494 340 6.3 336.2 10.5
2001-08-31 07:45:30 51°14.034 2°55.49 340.2 6.2 336.5 10.5
2001-08-31 07:45:36 51°14.043 2°55.484 340.3 6.1 336.5 10.5
2001-08-31 07:45:40 51°14.049 2°55.48 340.3 6 336.5 10.5
2001-08-31 07:45:46 51°14.058 2°55.474 340 5.9 336.1 10.5
2001-08-31 07:45:50 51°14.064 2°55.47 339.7 5.8 335.8 10.6
2001-08-31 07:45:56 51°14.072 2°55.463 339.3 5.7 335.6 10.5
2001-08-31 07:46:00 51°14.078 2°55.459 338.8 5.7 335.5 10.5
2001-08-31 07:46:06 51°14.086 2°55.453 338.7 5.6 335.3 10.5
2001-08-31 07:46:10 51°14.092 2°55.449 338.7 5.7 335.3 10.5
2001-08-31 07:46:16 51°14.101 2°55.442 338.5 5.8 335.2 10.5
2001-08-31 07:46:20 51°14.107 2°55.438 338.2 5.9 335 10.5
2001-08-31 07:46:26 51°14.116 2°55.431 337.8 6.1 334.5 10.4
2001-08-31 07:46:30 51°14.122 2°55.426 337.3 6.2 334 10.4
2001-08-31 07:46:36 51°14.132 2°55.418 336.7 6.5 333.2 10.4
2001-08-31 07:46:40 51°14.139 2°55.412 335.5 6.6 332.4 10.4
2001-08-31 07:46:46 51°14.148 2°55.403 334.2 6.8 330.9 10.4
2001-08-31 07:46:50 51°14.155 2°55.397 332.7 6.9 330 10.4
2001-08-31 07:46:56 51°14.165 2°55.387 331.3 7.1 328 10.3
2001-08-31 07:47:00 51°14.172 2°55.379 329.8 7.3 326.8 10.5
2001-08-31 07:47:06 51°14.183 2°55.368 328 7.5 324.9 10.5
2001-08-31 07:47:10 51°14.19 2°55.36 326.8 7.7 323.5 10.5
2001-08-31 07:47:16 51°14.201 2°55.347 325.8 7.9 322.2 10.5
2001-08-31 07:47:20 51°14.208 2°55.338 324.3 8 321.2 10.5
2001-08-31 07:47:26 51°14.219 2°55.323 323.7 8.3 320.1 10.5
2001-08-31 07:47:30 51°14.226 2°55.313 323 8.5 319.3 10.6
2001-08-31 07:47:36 51°14.237 2°55.297 321.8 8.9 318.1 10.5
2001-08-31 07:47:40 51°14.244 2°55.286 321 9.1 317.6 10.5
2001-08-31 07:47:46 51°14.256 2°55.268 320.2 9.4 316.4 10.5
2001-08-31 07:47:50 51°14.263 2°55.256 319.3 9.6 315.9 10.5
2001-08-31 07:47:56 51°14.275 2°55.238 318.5 9.8 314.8 10.4
2001-08-31 07:48:00 51°14.282 2°55.224 317.3 10 314.1 10.4
2001-08-31 07:48:06 51°14.294 2°55.205 316.8 10.2 313.3 10.4
2001-08-31 07:48:10 51°14.301 2°55.191 316.8 10.3 313 10.3
2001-08-31 07:48:16 51°14.313 2°55.17 316.3 10.5 312.7 10.3
2001-08-31 07:48:20 51°14.321 2°55.156 316 10.7 312.3 10.4
2001-08-31 07:48:26 51°14.334 2°55.134 315.3 10.9 311.9 10.4
2001-08-31 07:48:30 51°14.342 2°55.12 315 11 311.5 10.3
2001-08-31 07:48:36 51°14.354 2°55.098 315.2 11.2 311.7 10.4
2001-08-31 07:48:40 51°14.363 2°55.083 315.7 11.3 311.9 10.4
2001-08-31 07:48:46 51°14.376 2°55.061 316.7 11.4 312.6 10.6
2001-08-31 07:48:50 51°14.384 2°55.045 317 11.5 312.7 10.6
2001-08-31 07:48:56 51°14.397 2°55.022 317.2 11.7 312.5 10.7
2001-08-31 07:49:00 51°14.406 2°55.007 317.3 11.8 312.3 10.5
2001-08-31 07:49:06 51°14.42 2°54.984 318 11.9 312.8 10.5
2001-08-31 07:49:10 51°14.429 2°54.969 320.5 11.9 313.8 10.5
2001-08-31 07:49:16 51°14.445 2°54.948 322 11.9 315.7 10.3
2001-08-31 07:49:20 51°14.455 2°54.933 323.5 12 316.6 10
2001-08-31 07:49:26 51°14.47 2°54.912 324 12 318 10
2001-08-31 07:49:30 51°14.48 2°54.898 324.8 12 318.4 9.9
2001-08-31 07:49:36 51°14.495 2°54.878 325.3 12 319.1 9.9
2001-08-31 07:49:40 51°14.505 2°54.864 325.7 12 319.3 9.9
2001-08-31 07:49:46 51°14.52 2°54.843 326.3 12.1 320.1 9.9
2001-08-31 07:49:50 51°14.531 2°54.83 328 12 321.1 9.9
2001-08-31 07:49:56 51°14.547 2°54.811 329.2 12.1 322.5 9.8
2001-08-31 07:50:00 51°14.557 2°54.798 330.2 12.1 323.3 9.8
2001-08-31 07:50:06 51°14.574 2°54.78 330.8 12.1 324.1 9.8
2001-08-31 07:50:10 51°14.584 2°54.768 331.2 12.1 324.6 9.8
2001-08-31 07:50:16 51°14.6 2°54.749 331.3 12.1 324.9 9.7
2001-08-31 07:50:20 51°14.611 2°54.737 331.2 12.1 325 9.6
2001-08-31 07:50:26 51°14.627 2°54.718 331 12.1 324.7 9.7
2001-08-31 07:50:30 51°14.638 2°54.706 330.3 12 324.5 9.6
2001-08-31 07:50:36 51°14.655 2°54.688 331 12 324.8 9.5
2001-08-31 07:50:40 51°14.666 2°54.676 331.5 12 325.5 9.6
2001-08-31 07:50:46 51°14.682 2°54.659 332.5 11.9 326.8 9.7
2001-08-31 07:50:50 51°14.694 2°54.648 334.2 11.9 328 9.8
2001-08-31 07:50:56 51°14.711 2°54.632 335.3 12 329.4 9.8
2001-08-31 07:51:00 51°14.722 2°54.621 335.8 12 330 9.9
2001-08-31 07:51:06 51°14.74 2°54.606 336.2 12 330.6 9.7
2001-08-31 07:51:10 51°14.751 2°54.596 337.3 12 331.1 9.8
2001-08-31 07:51:16 51°14.769 2°54.581 337.8 11.9 332.1 9.7
2001-08-31 07:51:20 51°14.781 2°54.572 338.7 11.9 332.6 9.7
2001-08-31 07:51:26 51°14.799 2°54.557 339.2 11.9 333.3 9.7
2001-08-31 07:51:30 51°14.81 2°54.548 339 11.9 333.3 9.7
2001-08-31 07:51:36 51°14.828 2°54.533 339.2 11.9 333.3 9.7
2001-08-31 07:51:40 51°14.84 2°54.524 339.3 11.9 333.3 9.6
2001-08-31 07:51:46 51°14.857 2°54.51 339.2 11.9 333.2 9.7
2001-08-31 07:51:50 51°14.869 2°54.501 339.3 11.9 333.2 9.6
2001-08-31 07:51:56 51°14.887 2°54.486 339.2 12 333 9.5
2001-08-31 07:52:00 51°14.899 2°54.476 338.7 12 332.7 9.4
2001-08-31 07:52:06 51°14.917 2°54.462 338.7 12.1 332.7 9.3
2001-08-31 07:52:10 51°14.929 2°54.452 339.2 12.1 332.9 9.2
2001-08-31 07:52:16 51°14.946 2°54.438 339 12.1 333 9
2001-08-31 07:52:20 51°14.958 2°54.428 338.7 12.1 333 9
2001-08-31 07:52:26 51°14.976 2°54.412 338.5 12.2 332.5 8.9
2001-08-31 07:52:30 51°14.988 2°54.402 338.3 12.1 332.5 8.9
2001-08-31 07:52:36 51°15.006 2°54.387 338.5 12.2 332.3 8.8
2001-08-31 07:52:40 51°15.018 2°54.377 338.3 12.2 332.1 8.8
2001-08-31 07:52:46 51°15.036 2°54.361 338.2 12.2 331.8 8.8
2001-08-31 07:52:50 51°15.048 2°54.351 338.5 12.2 331.9 8.8
2001-08-31 07:52:56 51°15.066 2°54.336 338.5 12.2 331.9 8.8
2001-08-31 07:53:00 51°15.078 2°54.326 338.5 12.2 331.8 8.9
2001-08-31 07:53:06 51°15.096 2°54.311 338.3 12.2 331.6 8.9
2001-08-31 07:53:10 51°15.108 2°54.301 338.3 12.2 331.6 9
2001-08-31 07:53:16 51°15.126 2°54.286 338.7 12.3 331.4 9
2001-08-31 07:53:20 51°15.137 2°54.275 338.3 12.3 331.2 9.1
2001-08-31 07:53:26 51°15.156 2°54.26 338.2 12.4 331.3 9.1
2001-08-31 07:53:30 51°15.167 2°54.249 338.3 12.4 331.2 9.1
2001-08-31 07:53:36 51°15.186 2°54.234 338.3 12.4 331.6 9.2
2001-08-31 07:53:40 51°15.198 2°54.223 338.8 12.5 331.6 9.2
2001-08-31 07:53:46 51°15.217 2°54.207 338.7 12.6 331.8 9.3
2001-08-31 07:53:50 51°15.229 2°54.196 338.7 12.7 331.5 9.3
2001-08-31 07:53:56 51°15.248 2°54.18 338.2 12.7 331.4 9.3
2001-08-31 07:54:00 51°15.26 2°54.169 338 12.8 331 9.4
2001-08-31 07:54:06 51°15.279 2°54.153 338 12.8 331 9.4
2001-08-31 07:54:10 51°15.291 2°54.142 338.3 12.9 331.2 9.5
2001-08-31 07:54:16 51°15.311 2°54.125 338.5 13 331.5 9.5
2001-08-31 07:54:20 51°15.323 2°54.114 338.3 13 331.6 9.6
2001-08-31 07:54:26 51°15.342 2°54.097 338.5 13.1 331.4 9.6
2001-08-31 07:54:30 51°15.355 2°54.086 338 13.1 331.2 9.7
2001-08-31 07:54:36 51°15.374 2°54.07 338 13.1 331.1 9.8
2001-08-31 07:54:40 51°15.387 2°54.059 337.7 13.1 331 9.8
2001-08-31 07:54:46 51°15.406 2°54.042 337.7 13.1 330.7 9.9
2001-08-31 07:54:50 51°15.418 2°54.03 337.8 13.1 330.4 10
2001-08-31 07:54:56 51°15.437 2°54.013 337.7 13.1 330.5 10
2001-08-31 07:55:00 51°15.45 2°54.001 337.8 13.1 330.4 10.1
2001-08-31 07:55:06 51°15.469 2°53.984 338 13.1 330.5 10.2
2001-08-31 07:55:10 51°15.482 2°53.972 338 13.1 330.6 10.3
2001-08-31 07:55:16 51°15.501 2°53.955 338 13.1 330.5 10.4
2001-08-31 07:55:20 51°15.513 2°53.944 337.8 13.1 330.4 10.4
2001-08-31 07:55:26 51°15.532 2°53.926 337.7 13.1 330.1 10.5
2001-08-31 07:55:30 51°15.545 2°53.915 337.2 13.1 330 10.6
2001-08-31 07:55:36 51°15.564 2°53.897 337.2 13.1 329.5 10.7
2001-08-31 07:55:40 51°15.576 2°53.886 336.8 13.1 329.6 10.7
2001-08-31 07:55:46 51°15.595 2°53.868 337 13.1 329.3 10.9
2001-08-31 07:55:50 51°15.608 2°53.856 336.7 13.1 329.2 10.9
2001-08-31 07:55:56 51°15.626 2°53.838 336.7 13.1 329 11
2001-08-31 07:56:00 51°15.639 2°53.826 337 13.1 329.1 11.1
2001-08-31 07:56:06 51°15.658 2°53.808 337.3 13.1 329.4 11.1
2001-08-31 07:56:10 51°15.67 2°53.797 337.5 13.1 329.7 11.2
2001-08-31 07:56:16 51°15.689 2°53.779 337.7 13.1 329.8 11.2
2001-08-31 07:56:20 51°15.702 2°53.768 337.8 13.1 330.1 11.3
2001-08-31 07:56:26 51°15.72 2°53.75 337.7 13.1 329.9 11.3
2001-08-31 07:56:30 51°15.733 2°53.739 337.3 13.1 329.8 11.4
2001-08-31 07:56:36 51°15.752 2°53.721 337.2 13.2 329.1 11.4
2001-08-31 07:56:40 51°15.764 2°53.709 336.8 13.2 328.9 11.5
2001-08-31 07:56:46 51°15.783 2°53.691 337 13.1 328.7 11.6
2001-08-31 07:56:50 51°15.796 2°53.679 337.3 13.1 329 11.6
2001-08-31 07:56:56 51°15.814 2°53.661 337.7 13.1 329.3 11.7
2001-08-31 07:57:00 51°15.827 2°53.649 337.7 13.1 329.2 11.7
2001-08-31 07:57:06 51°15.845 2°53.631 337.3 13.1 328.9 11.7
2001-08-31 07:57:10 51°15.858 2°53.619 337.5 13.1 328.8 11.8
2001-08-31 07:57:16 51°15.876 2°53.602 337.3 13 329.1 11.8
2001-08-31 07:57:20 51°15.889 2°53.59 337.2 13 329.1 11.9
2001-08-31 07:57:26 51°15.907 2°53.573 337.3 13 329.2 12
2001-08-31 07:57:30 51°15.92 2°53.561 337 13 329.3 12
2001-08-31 07:57:36 51°15.938 2°53.544 337.2 13 329.3 12.1
2001-08-31 07:57:40 51°15.951 2°53.532 336.8 13 329.4 12.1
2001-08-31 07:57:46 51°15.969 2°53.514 336.7 13 329.4 12.2
2001-08-31 07:57:50 51°15.982 2°53.503 337 13 329.5 12.2
2001-08-31 07:57:56 51°16 2°53.485 336.8 13 329.7 12.2
2001-08-31 07:58:00 51°16.013 2°53.474 336.5 13 329.8 12.3
2001-08-31 07:58:06 51°16.031 2°53.457 336.5 13 329.6 12.3
2001-08-31 07:58:10 51°16.044 2°53.445 336.5 12.9 329.8 12.4
2001-08-31 07:58:16 51°16.062 2°53.428 336.7 12.9 330.1 12.3
2001-08-31 07:58:20 51°16.075 2°53.417 336.8 12.9 330.2 12.4
2001-08-31 07:58:26 51°16.094 2°53.4 336.8 13 330.1 12.4
2001-08-31 07:58:30 51°16.106 2°53.388 336.7 13 329.6 12.5
2001-08-31 07:58:36 51°16.125 2°53.37 336.7 13 329.5 12.5
2001-08-31 07:58:40 51°16.137 2°53.358 336.8 13 329.5 12.4
2001-08-31 07:58:46 51°16.156 2°53.342 337 13 329.8 12.5
2001-08-31 07:58:50 51°16.168 2°53.33 337.2 13 330 12.5
2001-08-31 07:58:56 51°16.187 2°53.313 336.7 13 329.8 12.5
2001-08-31 07:59:00 51°16.199 2°53.302 336.8 13.1 329.9 12.6
2001-08-31 07:59:06 51°16.218 2°53.285 337.2 13 330.2 12.6
2001-08-31 07:59:10 51°16.231 2°53.273 337.5 13.1 330.2 12.7
2001-08-31 07:59:16 51°16.25 2°53.256 336.7 13.1 330.1 12.7
2001-08-31 07:59:20 51°16.262 2°53.244 336.5 13.1 329.7 12.7
2001-08-31 07:59:26 51°16.281 2°53.226 336.3 13.1 329.7 12.7
2001-08-31 07:59:30 51°16.293 2°53.215 336.5 13.1 329.7 12.7
2001-08-31 07:59:36 51°16.312 2°53.198 336.3 13.1 330 12.7
2001-08-31 07:59:40 51°16.325 2°53.187 336.7 13.1 329.9 12.8
2001-08-31 07:59:46 51°16.344 2°53.169 336 13.1 329.9 12.7
2001-08-31 07:59:50 51°16.356 2°53.157 335.5 13.1 329.3 12.7
2001-08-31 07:59:56 51°16.375 2°53.139 335.2 13.1 329 12.7
2001-08-31 08:00:00 51°16.388 2°53.128 335.3 13.1 329.1 12.7
2001-08-31 08:00:06 51°16.406 2°53.11 335.7 13.1 329.4 12.6
2001-08-31 08:00:10 51°16.419 2°53.099 336 13.1 329.6 12.6
2001-08-31 08:00:16 51°16.437 2°53.081 335.7 13.1 329.5 12.6
2001-08-31 08:00:20 51°16.45 2°53.07 335.3 13.1 329.2 12.6
2001-08-31 08:00:26 51°16.469 2°53.051 335.3 13.1 329.2 12.6
2001-08-31 08:00:30 51°16.481 2°53.039 335.5 13.1 329.1 12.5
2001-08-31 08:00:36 51°16.5 2°53.022 335.3 13.1 329.4 12.4
2001-08-31 08:00:40 51°16.513 2°53.01 335.7 13.1 329.5 12.4
2001-08-31 08:00:46 51°16.531 2°52.992 335 13 329.2 12.3
2001-08-31 08:00:50 51°16.544 2°52.98 335 13 329.1 12.2
2001-08-31 08:00:56 51°16.562 2°52.963 335 13 329.1 12.1
2001-08-31 08:01:00 51°16.575 2°52.952 335.5 13 329.4 12.1
2001-08-31 08:01:06 51°16.593 2°52.934 335.3 13 329.5 12
2001-08-31 08:01:10 51°16.605 2°52.922 335.5 13 329.5 11.9
2001-08-31 08:01:16 51°16.624 2°52.905 335.3 13 329.4 11.9
2001-08-31 08:01:20 51°16.637 2°52.893 335.2 13 329.3 11.7
2001-08-31 08:01:26 51°16.655 2°52.875 334.5 13 328.6 11.7
2001-08-31 08:01:30 51°16.668 2°52.863 334.2 13 328.5 11.6
2001-08-31 08:01:36 51°16.686 2°52.845 334.5 13 328.6 11.4
2001-08-31 08:01:40 51°16.698 2°52.833 334.8 13 328.7 11.4
2001-08-31 08:01:46 51°16.717 2°52.815 334.2 13 328.6 11.2
2001-08-31 08:01:50 51°16.729 2°52.803 334.2 13 328.1 10.9
2001-08-31 08:01:56 51°16.747 2°52.785 334.2 12.9 328.3 10.8
2001-08-31 08:02:00 51°16.76 2°52.773 334.5 12.9 328.4 10.4
2001-08-31 08:02:06 51°16.778 2°52.755 334.7 12.9 328.7 10
2001-08-31 08:02:10 51°16.79 2°52.744 335 12.8 328.9 10
2001-08-31 08:02:16 51°16.808 2°52.727 335.2 12.8 329.1 10.3
2001-08-31 08:02:20 51°16.82 2°52.715 335.5 12.7 329.4 10.2
2001-08-31 08:02:26 51°16.839 2°52.698 335.8 12.8 329.4 10
2001-08-31 08:02:30 51°16.851 2°52.686 335 12.8 329.1 9.9
2001-08-31 08:02:36 51°16.869 2°52.669 334.8 12.9 328.8 9.8
2001-08-31 08:02:40 51°16.881 2°52.657 334.7 12.8 328.6 9.9
2001-08-31 08:02:46 51°16.899 2°52.639 334.7 12.8 328.6 10.1
2001-08-31 08:02:50 51°16.911 2°52.628 334.8 12.8 328.5 10
2001-08-31 08:02:56 51°16.929 2°52.61 334.5 12.8 328.5 10.3
2001-08-31 08:03:00 51°16.941 2°52.597 334.3 12.8 328 10.6
2001-08-31 08:03:06 51°16.96 2°52.579 334.2 12.9 328 10.7
2001-08-31 08:03:10 51°16.972 2°52.567 334.5 12.9 328 10.6
2001-08-31 08:03:16 51°16.99 2°52.549 334.3 12.9 328.2 10.2
2001-08-31 08:03:20 51°17.002 2°52.537 334.5 12.9 328.2 10.1
2001-08-31 08:03:26 51°17.02 2°52.52 334.3 12.8 328.2 10
2001-08-31 08:03:30 51°17.032 2°52.508 334.7 12.7 328.3 10.1
2001-08-31 08:03:36 51°17.05 2°52.491 334.5 12.7 328.4 10
2001-08-31 08:03:40 51°17.063 2°52.479 334.7 12.7 328.4 10.1
2001-08-31 08:03:46 51°17.081 2°52.461 334.7 12.8 328.5 10.2
2001-08-31 08:03:50 51°17.093 2°52.449 334.5 12.8 328.4 10.3
2001-08-31 08:03:56 51°17.111 2°52.43 334 12.9 327.7 10.2
2001-08-31 08:04:00 51°17.123 2°52.418 333.7 12.9 327.3 10.3
2001-08-31 08:04:06 51°17.141 2°52.399 334 12.8 327.4 10.3
2001-08-31 08:04:10 51°17.153 2°52.387 334.2 12.9 327.6 10.4
2001-08-31 08:04:16 51°17.171 2°52.369 334.2 12.9 327.7 10.5
2001-08-31 08:04:20 51°17.183 2°52.357 334.2 12.9 327.7 10.6
2001-08-31 08:04:26 51°17.201 2°52.338 334.5 12.9 327.7 10.6
2001-08-31 08:04:30 51°17.213 2°52.326 333.7 12.9 327.6 10.6
2001-08-31 08:04:36 51°17.232 2°52.307 334.2 12.9 327.5 10.7
2001-08-31 08:04:40 51°17.244 2°52.295 334 12.9 327.6 10.8
2001-08-31 08:04:46 51°17.262 2°52.277 334 12.9 327.4 10.8
2001-08-31 08:04:50 51°17.274 2°52.264 334 12.9 327.5 10.8
2001-08-31 08:04:56 51°17.292 2°52.246 334.3 12.9 327.6 10.9
2001-08-31 08:05:00 51°17.304 2°52.234 334.3 12.9 327.6 10.9
2001-08-31 08:05:06 51°17.322 2°52.215 333.7 12.9 327 11
2001-08-31 08:05:10 51°17.334 2°52.203 333.3 12.9 327 11
2001-08-31 08:05:16 51°17.352 2°52.184 333.2 12.8 326.8 10.9
2001-08-31 08:05:20 51°17.363 2°52.171 332.5 12.8 326.4 11
2001-08-31 08:05:26 51°17.381 2°52.152 332.8 12.8 326.3 10.9
2001-08-31 08:05:30 51°17.393 2°52.14 332.8 12.8 326.3 11
2001-08-31 08:05:36 51°17.411 2°52.122 333 12.8 326.6 10.8
2001-08-31 08:05:40 51°17.423 2°52.109 333.2 12.8 326.8 10.9
2001-08-31 08:05:46 51°17.44 2°52.091 333.2 12.8 326.8 10.9
2001-08-31 08:05:50 51°17.452 2°52.078 333.3 12.8 326.8 11
2001-08-31 08:05:56 51°17.47 2°52.059 334 12.8 327 11
2001-08-31 08:06:00 51°17.482 2°52.047 334 12.8 327.3 11
2001-08-31 08:06:06 51°17.5 2°52.029 333.7 12.8 327.2 11.1
2001-08-31 08:06:10 51°17.512 2°52.016 333.7 12.8 327.1 11.1
2001-08-31 08:06:16 51°17.53 2°51.998 333.5 12.8 327 11.1
2001-08-31 08:06:20 51°17.542 2°51.985 333.7 12.9 327 11
2001-08-31 08:06:26 51°17.56 2°51.966 333.7 12.9 326.8 11
2001-08-31 08:06:30 51°17.571 2°51.954 333.3 12.9 326.4 10.9
2001-08-31 08:06:36 51°17.589 2°51.933 330.5 12.9 323.4 10.9
2001-08-31 08:06:40 51°17.599 2°51.918 326.2 12.9 320.2 11
2001-08-31 08:06:46 51°17.614 2°51.893 321.7 12.9 314.6 10.8
2001-08-31 08:06:50 51°17.623 2°51.875 317.7 12.9 311.5 10.8
2001-08-31 08:06:56 51°17.636 2°51.848 315 12.9 308 10.8
2001-08-31 08:07:00 51°17.644 2°51.829 313 12.9 306.1 10.8
2001-08-31 08:07:06 51°17.655 2°51.799 310.5 13 304.5 10.7
2001-08-31 08:07:10 51°17.663 2°51.779 308.8 13 301.8 10.8
2001-08-31 08:07:16 51°17.673 2°51.748 306.2 13.1 299.2 10.6
2001-08-31 08:07:20 51°17.679 2°51.728 304.2 13.1 297.7 10.7
2001-08-31 08:07:26 51°17.688 2°51.696 302.7 13.1 295.8 10.7
2001-08-31 08:07:30 51°17.694 2°51.675 301.5 13.1 295 10.6
2001-08-31 08:07:36 51°17.703 2°51.643 301.2 13.1 294.3 10.5
2001-08-31 08:07:40 51°17.71 2°51.622 300.8 13.1 294.2 10.4
2001-08-31 08:07:46 51°17.719 2°51.589 300.8 13.2 294 10.5
2001-08-31 08:07:50 51°17.725 2°51.568 301 13.2 294.1 10.6
2001-08-31 08:07:56 51°17.734 2°51.537 301.3 13.2 294.3 10.5
2001-08-31 08:08:00 51°17.74 2°51.516 301.3 13.2 294.4 10.6
2001-08-31 08:08:06 51°17.749 2°51.484 301 13.2 294 10.6
2001-08-31 08:08:10 51°17.755 2°51.462 300.3 13.2 293.9 10.4
2001-08-31 08:08:16 51°17.764 2°51.43 300.2 13.2 293.4 10.6
2001-08-31 08:08:20 51°17.769 2°51.409 300 13.2 293.3 10.7
2001-08-31 08:08:26 51°17.778 2°51.377 300.5 13.2 293.4 10.7
2001-08-31 08:08:30 51°17.784 2°51.355 300.2 13.3 293.5 10.8
2001-08-31 08:08:36 51°17.793 2°51.323 300 13.3 293.2 10.8
2001-08-31 08:08:40 51°17.799 2°51.301 299.7 13.3 293.1 11
2001-08-31 08:08:46 51°17.807 2°51.269 299.8 13.3 293 10.8
2001-08-31 08:08:50 51°17.813 2°51.247 300 13.3 293.2 11.1
2001-08-31 08:08:56 51°17.821 2°51.215 299.5 13.3 293.1 11.1
2001-08-31 08:09:00 51°17.827 2°51.193 298.8 13.3 292.3 11.2
2001-08-31 08:09:06 51°17.835 2°51.16 298.5 13.4 291.9 11.3
2001-08-31 08:09:10 51°17.841 2°51.138 298.7 13.4 291.7 11.2
2001-08-31 08:09:16 51°17.849 2°51.105 298.5 13.3 291.7 11.5
2001-08-31 08:09:20 51°17.854 2°51.083 298.8 13.3 291.9 11.4
2001-08-31 08:09:26 51°17.863 2°51.05 299.2 13.3 292.4 11.6
2001-08-31 08:09:30 51°17.869 2°51.028 299.5 13.3 292.5 11.9
2001-08-31 08:09:36 51°17.877 2°50.995 299.5 13.3 292.8 12
2001-08-31 08:09:40 51°17.883 2°50.973 299.8 13.3 292.7 12.2
2001-08-31 08:09:46 51°17.892 2°50.94 300.2 13.3 293.3 12.1
2001-08-31 08:09:50 51°17.898 2°50.919 300.5 13.3 293.5 12.4
2001-08-31 08:09:56 51°17.907 2°50.887 301.2 13.4 294.1 12.5
2001-08-31 08:10:00 51°17.913 2°50.865 301.3 13.4 294.3 12.5
2001-08-31 08:10:06 51°17.921 2°50.833 301.5 13.4 294.4 12.6
2001-08-31 08:10:10 51°17.927 2°50.812 300.8 13.4 294.1 12.7
2001-08-31 08:10:16 51°17.936 2°50.779 300.7 13.4 293.7 12.8
2001-08-31 08:10:20 51°17.942 2°50.758 300.3 13.4 293.4 12.9
2001-08-31 08:10:26 51°17.951 2°50.726 300.2 13.4 293.3 13
2001-08-31 08:10:30 51°17.957 2°50.704 300.2 13.4 293.2 13.1
2001-08-31 08:10:36 51°17.966 2°50.672 300.5 13.4 293.5 13
2001-08-31 08:10:40 51°17.972 2°50.651 301 13.4 293.7 13.2
2001-08-31 08:10:46 51°17.981 2°50.618 300.8 13.3 293.8 13.2
2001-08-31 08:10:50 51°17.987 2°50.597 301 13.3 293.7 13.2
2001-08-31 08:10:56 51°17.996 2°50.564 300.5 13.3 293.6 13.2
2001-08-31 08:11:00 51°18.002 2°50.542 300.7 13.3 293.7 13.3
2001-08-31 08:11:06 51°18.011 2°50.51 301 13.4 293.7 13.6
2001-08-31 08:11:10 51°18.016 2°50.488 301.2 13.4 294 13.6
2001-08-31 08:11:16 51°18.025 2°50.455 301.2 13.4 293.9 13.6
2001-08-31 08:11:20 51°18.031 2°50.434 300.8 13.4 293.7 13.6
2001-08-31 08:11:26 51°18.04 2°50.401 300.5 13.4 293.3 13.8
2001-08-31 08:11:30 51°18.046 2°50.379 300.2 13.4 293 13.8
2001-08-31 08:11:36 51°18.055 2°50.346 300.3 13.4 293.1 13.9
2001-08-31 08:11:40 51°18.061 2°50.325 300.5 13.4 293.2 14.1
2001-08-31 08:11:46 51°18.07 2°50.292 300.5 13.4 293.4 14.1
2001-08-31 08:11:50 51°18.075 2°50.27 299.7 13.5 292.9 14
2001-08-31 08:11:56 51°18.084 2°50.236 298.7 13.5 291.9 14.1
2001-08-31 08:12:00 51°18.089 2°50.214 298.8 13.5 291.4 14.1
2001-08-31 08:12:06 51°18.098 2°50.179 298.7 13.4 291.3 14.5
2001-08-31 08:12:10 51°18.103 2°50.156 299 13.4 291.3 14.4
2001-08-31 08:12:16 51°18.111 2°50.124 299.2 13.4 291.4 14.4
2001-08-31 08:12:20 51°18.117 2°50.102 300 13.4 292.3 14.4
2001-08-31 08:12:26 51°18.126 2°50.07 300.7 13.4 293.1 14.5
2001-08-31 08:12:30 51°18.132 2°50.048 301.5 13.4 293.6 14.5
2001-08-31 08:12:36 51°18.141 2°50.016 301.8 13.4 294.1 14.5
2001-08-31 08:12:40 51°18.148 2°49.995 301.8 13.4 294.2 14.6
2001-08-31 08:12:46 51°18.157 2°49.963 301.5 13.4 294.4 14.4
2001-08-31 08:12:50 51°18.163 2°49.941 301.5 13.4 294.1 14.6
2001-08-31 08:12:56 51°18.171 2°49.908 300.7 13.4 293.5 14.4
2001-08-31 08:13:00 51°18.177 2°49.886 300 13.4 292.9 14.5
2001-08-31 08:13:06 51°18.186 2°49.853 299.5 13.5 292.1 14.5
2001-08-31 08:13:10 51°18.191 2°49.831 299.2 13.5 291.8 14.4
2001-08-31 08:13:16 51°18.2 2°49.798 299.3 13.5 291.8 14.3
2001-08-31 08:13:20 51°18.205 2°49.776 299.8 13.4 292.2 14.3
2001-08-31 08:13:26 51°18.214 2°49.743 300.7 13.4 292.7 14.2
2001-08-31 08:13:30 51°18.22 2°49.722 301.5 13.4 293.6 14.2
2001-08-31 08:13:36 51°18.229 2°49.689 302.2 13.4 294.4 14.1
2001-08-31 08:13:40 51°18.235 2°49.668 302.2 13.4 294.6 14
2001-08-31 08:13:46 51°18.244 2°49.635 301.3 13.4 294.3 14
2001-08-31 08:13:50 51°18.25 2°49.613 301 13.4 293.8 13.8
2001-08-31 08:13:56 51°18.259 2°49.58 300.2 13.4 293.7 13.8
2001-08-31 08:14:00 51°18.265 2°49.558 300 13.5 293 13.6
2001-08-31 08:14:06 51°18.273 2°49.525 299.7 13.5 292.9 13.1
2001-08-31 08:14:10 51°18.279 2°49.503 299.3 13.4 292.3 12.7
2001-08-31 08:14:16 51°18.287 2°49.47 299.2 13.4 292.3 12.2
2001-08-31 08:14:20 51°18.293 2°49.448 299.5 13.4 292.3 12.1
2001-08-31 08:14:26 51°18.302 2°49.415 299.8 13.4 292.9 12.3
2001-08-31 08:14:30 51°18.308 2°49.394 300.2 13.4 293.1 12.4
2001-08-31 08:14:36 51°18.316 2°49.361 300.5 13.4 293.3 12.2
2001-08-31 08:14:40 51°18.322 2°49.339 299 13.4 292.7 12.2
2001-08-31 08:14:46 51°18.33 2°49.305 298.5 13.4 292.1 12.1
2001-08-31 08:14:50 51°18.336 2°49.283 298.5 13.5 292 11.9
2001-08-31 08:14:56 51°18.344 2°49.251 298.8 13.4 292.3 11.6
2001-08-31 08:15:00 51°18.35 2°49.229 299.7 13.4 292.5 11.4
2001-08-31 08:15:06 51°18.359 2°49.197 300.2 13.3 293.4 11.1
2001-08-31 08:15:10 51°18.366 2°49.177 300.5 13.3 293.7 10.9
2001-08-31 08:15:16 51°18.376 2°49.146 301 13.3 294.5 10.9
2001-08-31 08:15:20 51°18.382 2°49.125 301.2 13.3 294.6 10.9
2001-08-31 08:15:26 51°18.39 2°49.091 301.5 13.3 294.8 11.1
2001-08-31 08:15:30 51°18.396 2°49.069 301.5 13.3 294.8 10.9
2001-08-31 08:15:36 51°18.405 2°49.037 300.7 13.3 294.5 11.4
2001-08-31 08:15:40 51°18.411 2°49.015 300.3 13.4 294.1 11.2
2001-08-31 08:15:46 51°18.42 2°48.983 299.3 13.4 293.2 11.3
2001-08-31 08:15:50 51°18.426 2°48.961 299.2 13.4 292.9 11.2
2001-08-31 08:15:56 51°18.434 2°48.928 299.2 13.4 292.7 11.2
2001-08-31 08:16:00 51°18.44 2°48.906 299.2 13.4 292.7 11.2
2001-08-31 08:16:06 51°18.449 2°48.873 298.8 13.4 292.6 10.8
2001-08-31 08:16:11 51°18.456 2°48.846 299 13.4 292.8 10.7
2001-08-31 08:16:16 51°18.463 2°48.819 299.5 13.3 292.9 10.9
2001-08-31 08:16:20 51°18.469 2°48.798 299.8 13.3 293.4 11.1
2001-08-31 08:16:26 51°18.478 2°48.765 300.2 13.3 293.6 11.4
2001-08-31 08:16:30 51°18.484 2°48.744 300.2 13.3 293.8 11.6
2001-08-31 08:16:36 51°18.493 2°48.711 299.8 13.4 293.6 11.9
2001-08-31 08:16:40 51°18.499 2°48.689 299.5 13.5 293.4 11.8
2001-08-31 08:16:46 51°18.507 2°48.656 299.2 13.5 292.9 11.5
2001-08-31 08:16:50 51°18.513 2°48.634 299 13.4 292.8 11.3
2001-08-31 08:16:56 51°18.522 2°48.601 299 13.4 292.8 11
2001-08-31 08:17:00 51°18.527 2°48.579 299.2 13.4 292.9 10.9
2001-08-31 08:17:06 51°18.536 2°48.547 299.8 13.3 293.4 11.6
2001-08-31 08:17:10 51°18.542 2°48.526 300.5 13.3 293.6 11.8
2001-08-31 08:17:16 51°18.551 2°48.493 300 13.4 293.6 12.2
2001-08-31 08:17:20 51°18.557 2°48.471 299.8 13.4 293.3 12.6
2001-08-31 08:17:26 51°18.566 2°48.438 300 13.5 293.4 12.8
2001-08-31 08:17:30 51°18.572 2°48.417 300.2 13.5 293.4 12.8
2001-08-31 08:17:36 51°18.581 2°48.384 300.3 13.5 293.5 12.7
2001-08-31 08:17:40 51°18.587 2°48.362 300.5 13.5 293.6 12.9
2001-08-31 08:17:46 51°18.596 2°48.328 300.5 13.5 293.6 13.2
2001-08-31 08:17:50 51°18.602 2°48.307 300.7 13.5 293.7 13.5
2001-08-31 08:17:56 51°18.611 2°48.274 301 13.5 293.9 13.7
2001-08-31 08:18:00 51°18.617 2°48.252 300.8 13.5 294 14
2001-08-31 08:18:06 51°18.628 2°48.221 300.7 13.5 293.9 14.2
2001-08-31 08:18:11 51°18.636 2°48.194 300.7 13.5 293.9 14.4
2001-08-31 08:18:16 51°18.643 2°48.167 300.7 13.5 293.6 14.5
2001-08-31 08:18:20 51°18.649 2°48.144 300.7 13.5 293.4 14.6
2001-08-31 08:18:26 51°18.657 2°48.111 300 13.5 292.7 14.7
2001-08-31 08:18:30 51°18.663 2°48.089 299.3 13.5 292.2 14.8
2001-08-31 08:18:36 51°18.671 2°48.055 298.8 13.5 291.7 14.8
2001-08-31 08:18:40 51°18.677 2°48.033 298.8 13.5 291.6 14.9
2001-08-31 08:18:46 51°18.685 2°48 299.2 13.5 291.9 15.1
2001-08-31 08:18:50 51°18.691 2°47.978 299.7 13.5 292.2 15.2
2001-08-31 08:18:56 51°18.7 2°47.946 300.8 13.5 293.3 15.5
2001-08-31 08:19:00 51°18.706 2°47.924 301.3 13.5 293.6 15.6
2001-08-31 08:19:06 51°18.715 2°47.892 301.7 13.5 294.1 15.8
2001-08-31 08:19:10 51°18.721 2°47.87 301.7 13.5 294.2 16
2001-08-31 08:19:16 51°18.731 2°47.837 301.7 13.5 294.1 16.2
2001-08-31 08:19:20 51°18.737 2°47.815 301.5 13.5 294 16.4
2001-08-31 08:19:26 51°18.746 2°47.783 301.8 13.5 294.2 16.6
2001-08-31 08:19:30 51°18.752 2°47.761 302.3 13.5 294.4 16.7
2001-08-31 08:19:36 51°18.762 2°47.728 302.8 13.5 294.7 16.8
2001-08-31 08:19:40 51°18.768 2°47.706 302.5 13.5 294.7 17
2001-08-31 08:19:46 51°18.777 2°47.673 302.3 13.5 294.4 17.2
2001-08-31 08:19:50 51°18.783 2°47.651 302.3 13.5 294.1 17.3
2001-08-31 08:19:56 51°18.792 2°47.619 302 13.6 293.7 17.3
2001-08-31 08:20:00 51°18.798 2°47.597 301.7 13.6 293.5 17.5
2001-08-31 08:20:06 51°18.807 2°47.564 301 13.6 292.8 17.4
2001-08-31 08:20:10 51°18.812 2°47.542 300.7 13.6 292.6 17.4
2001-08-31 08:20:16 51°18.821 2°47.508 300.7 13.6 292.2 18
2001-08-31 08:20:20 51°18.827 2°47.486 300.2 13.6 292.2 18.5
2001-08-31 08:20:26 51°18.834 2°47.451 300.2 13.6 291.8 18.9
2001-08-31 08:20:30 51°18.84 2°47.428 299.8 13.6 291.6 19
2001-08-31 08:20:36 51°18.848 2°47.394 300 13.6 291.6 19.2
2001-08-31 08:20:40 51°18.854 2°47.372 299.8 13.6 291.7 19.2
2001-08-31 08:20:46 51°18.863 2°47.34 301 13.6 292.5 19.5
2001-08-31 08:20:50 51°18.869 2°47.318 302.2 13.6 293.5 19.5
2001-08-31 08:20:56 51°18.879 2°47.285 302.7 13.6 294.2 19.6
2001-08-31 08:21:00 51°18.885 2°47.263 302.8 13.6 294.4 19.8
2001-08-31 08:21:06 51°18.894 2°47.23 303 13.6 294.5 19.9
2001-08-31 08:21:10 51°18.9 2°47.208 302.7 13.6 294.5 19.9
2001-08-31 08:21:16 51°18.91 2°47.175 303 13.6 294.6 20.1
2001-08-31 08:21:20 51°18.916 2°47.153 303.3 13.6 294.7 20.3
2001-08-31 08:21:26 51°18.926 2°47.12 303.3 13.6 295 20.4
2001-08-31 08:21:30 51°18.933 2°47.098 303.5 13.6 295.1 20.4
2001-08-31 08:21:36 51°18.942 2°47.065 303.3 13.6 295.1 20.8
2001-08-31 08:21:40 51°18.948 2°47.043 303 13.6 294.6 20.9
2001-08-31 08:21:46 51°18.957 2°47.01 302 13.7 293.6 21
2001-08-31 08:21:50 51°18.963 2°46.988 301.3 13.6 293.1 21.1
2001-08-31 08:21:56 51°18.971 2°46.955 300.5 13.6 292.5 21.2
2001-08-31 08:22:00 51°18.977 2°46.933 300.7 13.6 292.5 21.2
2001-08-31 08:22:06 51°18.986 2°46.899 301.2 13.6 292.8 21.5
2001-08-31 08:22:10 51°18.992 2°46.877 301.2 13.6 293 21.5
2001-08-31 08:22:16 51°19.001 2°46.844 301.7 13.6 293.5 21.5
2001-08-31 08:22:20 51°19.007 2°46.822 301.7 13.6 293.8 21.6
2001-08-31 08:22:26 51°19.017 2°46.789 302 13.6 294.3 21.7
2001-08-31 08:22:30 51°19.023 2°46.767 302.3 13.6 294.4 21.6
2001-08-31 08:22:36 51°19.032 2°46.734 302.5 13.6 294.5 21.7
2001-08-31 08:22:40 51°19.039 2°46.713 302.3 13.6 294.5 21.6
2001-08-31 08:22:46 51°19.048 2°46.68 302.5 13.6 294.5 21.7
2001-08-31 08:22:50 51°19.054 2°46.658 302.7 13.6 294.5 21.8
2001-08-31 08:22:56 51°19.064 2°46.625 302.2 13.6 294.3 21.8
2001-08-31 08:23:00 51°19.07 2°46.603 301.8 13.6 294.1 21.7
2001-08-31 08:23:06 51°19.079 2°46.57 302 13.6 294 21.9
2001-08-31 08:23:10 51°19.085 2°46.548 302.2 13.6 294.1 21.8
2001-08-31 08:23:16 51°19.094 2°46.515 302.2 13.6 294.4 21.6
2001-08-31 08:23:20 51°19.101 2°46.494 302.5 13.6 294.5 21.9
2001-08-31 08:23:26 51°19.11 2°46.461 302.8 13.5 294.7 22.1
2001-08-31 08:23:30 51°19.117 2°46.439 303.2 13.5 295.1 22
2001-08-31 08:23:36 51°19.126 2°46.406 303.2 13.5 295.2 22
2001-08-31 08:23:40 51°19.133 2°46.383 303 13.5 295.1 21.9
2001-08-31 08:23:46 51°19.142 2°46.349 302.5 13.5 295 22
2001-08-31 08:23:50 51°19.149 2°46.328 302.5 13.5 294.7 21.8
2001-08-31 08:23:56 51°19.158 2°46.296 301.7 13.5 294.2 21.8
2001-08-31 08:24:00 51°19.164 2°46.274 301.5 13.5 293.8 21.6
2001-08-31 08:24:06 51°19.173 2°46.241 301 13.5 293.4 20.5
2001-08-31 08:24:10 51°19.178 2°46.219 300.5 13.6 292.9 21.3
2001-08-31 08:24:16 51°19.187 2°46.186 300.3 13.6 292.8 21.3
2001-08-31 08:24:20 51°19.193 2°46.164 299.8 13.6 292.5 21.2
2001-08-31 08:24:26 51°19.201 2°46.131 300.2 13.5 292.6 20.9
2001-08-31 08:24:30 51°19.207 2°46.11 300.5 13.5 292.8 20.3
2001-08-31 08:24:36 51°19.216 2°46.077 301.2 13.5 293.4 19.8
2001-08-31 08:24:40 51°19.223 2°46.055 301.7 13.5 294 19.5
2001-08-31 08:24:46 51°19.232 2°46.022 302.2 13.5 294.4 19.2
2001-08-31 08:24:50 51°19.238 2°46 302.2 13.5 294.7 18.4
2001-08-31 08:24:56 51°19.247 2°45.967 301.8 13.5 294.2 19.5
2001-08-31 08:25:00 51°19.254 2°45.945 301.2 13.5 294.1 18.9
2001-08-31 08:25:06 51°19.263 2°45.913 301.2 13.5 293.8 18.5
2001-08-31 08:25:10 51°19.269 2°45.891 301.5 13.5 294.3 17.8
2001-08-31 08:25:16 51°19.278 2°45.858 302 13.5 294.5 18.1
2001-08-31 08:25:20 51°19.284 2°45.837 302.5 13.4 294.9 18.2
2001-08-31 08:25:26 51°19.294 2°45.804 302.5 13.5 294.8 17.7
2001-08-31 08:25:30 51°19.3 2°45.782 301.5 13.5 294.6 16.2
2001-08-31 08:25:36 51°19.308 2°45.75 300.8 13.5 293.6 16.8
2001-08-31 08:25:40 51°19.314 2°45.729 299.5 13.4 293 16.9
2001-08-31 08:25:46 51°19.323 2°45.696 299.2 13.4 292.2 15.8